sensor_id;sensor_type;location;lat;lon;timestamp;temperature;humidity
53748;DHT22;39655;53.210;5.768;2022-10-31T00:01:08;12.60;94.60
53748;DHT22;39655;53.210;5.768;2022-10-31T00:03:34;12.60;94.60
53748;DHT22;39655;53.210;5.768;2022-10-31T00:05:59;12.50;94.70
53748;DHT22;39655;53.210;5.768;2022-10-31T00:08:27;12.50;94.60
53748;DHT22;39655;53.210;5.768;2022-10-31T00:10:53;12.50;94.50
53748;DHT22;39655;53.210;5.768;2022-10-31T00:13:18;12.40;94.50
53748;DHT22;39655;53.210;5.768;2022-10-31T00:15:44;12.40;94.50
53748;DHT22;39655;53.210;5.768;2022-10-31T00:18:10;12.40;94.50
53748;DHT22;39655;53.210;5.768;2022-10-31T00:20:37;12.30;94.50
53748;DHT22;39655;53.210;5.768;2022-10-31T00:23:04;12.30;94.60
53748;DHT22;39655;53.210;5.768;2022-10-31T00:25:34;12.30;94.60
53748;DHT22;39655;53.210;5.768;2022-10-31T00:28:01;12.20;94.60
53748;DHT22;39655;53.210;5.768;2022-10-31T00:30:27;12.20;94.60
53748;DHT22;39655;53.210;5.768;2022-10-31T00:32:53;12.20;94.70
53748;DHT22;39655;53.210;5.768;2022-10-31T00:35:19;12.20;94.70
53748;DHT22;39655;53.210;5.768;2022-10-31T00:37:45;12.20;94.70
53748;DHT22;39655;53.210;5.768;2022-10-31T00:40:11;12.20;94.80
53748;DHT22;39655;53.210;5.768;2022-10-31T00:42:37;12.20;94.80
53748;DHT22;39655;53.210;5.768;2022-10-31T00:45:03;12.10;94.80
53748;DHT22;39655;53.210;5.768;2022-10-31T00:47:28;12.10;94.80
53748;DHT22;39655;53.210;5.768;2022-10-31T00:49:54;12.10;94.80
53748;DHT22;39655;53.210;5.768;2022-10-31T00:52:19;12.10;94.90
53748;DHT22;39655;53.210;5.768;2022-10-31T00:54:45;12.10;95.00
53748;DHT22;39655;53.210;5.768;2022-10-31T00:57:11;12.10;95.00
53748;DHT22;39655;53.210;5.768;2022-10-31T00:59:36;12.10;95.10
53748;DHT22;39655;53.210;5.768;2022-10-31T01:02:02;12.10;95.10
53748;DHT22;39655;53.210;5.768;2022-10-31T01:04:28;12.10;95.10
53748;DHT22;39655;53.210;5.768;2022-10-31T01:06:53;12.10;95.10
53748;DHT22;39655;53.210;5.768;2022-10-31T01:09:19;12.10;95.10
53748;DHT22;39655;53.210;5.768;2022-10-31T01:11:45;12.00;95.00
53748;DHT22;39655;53.210;5.768;2022-10-31T01:14:10;12.00;95.10
53748;DHT22;39655;53.210;5.768;2022-10-31T01:16:36;12.00;95.10
53748;DHT22;39655;53.210;5.768;2022-10-31T01:19:02;12.00;95.20
53748;DHT22;39655;53.210;5.768;2022-10-31T01:21:29;12.00;95.30
53748;DHT22;39655;53.210;5.768;2022-10-31T01:23:55;12.00;95.30
53748;DHT22;39655;53.210;5.768;2022-10-31T01:26:27;12.00;95.40
53748;DHT22;39655;53.210;5.768;2022-10-31T01:28:56;12.00;95.40
53748;DHT22;39655;53.210;5.768;2022-10-31T01:31:28;12.00;95.40
53748;DHT22;39655;53.210;5.768;2022-10-31T01:33:54;12.00;95.50
53748;DHT22;39655;53.210;5.768;2022-10-31T01:36:24;11.90;95.50
53748;DHT22;39655;53.210;5.768;2022-10-31T01:38:52;11.90;95.50
53748;DHT22;39655;53.210;5.768;2022-10-31T01:41:22;11.90;95.50
53748;DHT22;39655;53.210;5.768;2022-10-31T01:43:54;11.90;95.60
53748;DHT22;39655;53.210;5.768;2022-10-31T01:46:34;11.90;95.60
53748;DHT22;39655;53.210;5.768;2022-10-31T01:49:05;11.90;95.60
53748;DHT22;39655;53.210;5.768;2022-10-31T01:51:37;11.90;95.60
53748;DHT22;39655;53.210;5.768;2022-10-31T01:54:04;11.90;95.60
53748;DHT22;39655;53.210;5.768;2022-10-31T01:56:32;11.90;95.70
53748;DHT22;39655;53.210;5.768;2022-10-31T01:59:01;11.90;95.70
53748;DHT22;39655;53.210;5.768;2022-10-31T02:01:27;11.90;95.70
53748;DHT22;39655;53.210;5.768;2022-10-31T02:03:54;11.90;95.70
53748;DHT22;39655;53.210;5.768;2022-10-31T02:06:35;11.90;95.70
53748;DHT22;39655;53.210;5.768;2022-10-31T02:09:04;11.90;95.70
53748;DHT22;39655;53.210;5.768;2022-10-31T02:11:31;11.80;95.70
53748;DHT22;39655;53.210;5.768;2022-10-31T02:13:59;11.80;95.70
53748;DHT22;39655;53.210;5.768;2022-10-31T02:16:25;11.80;95.70
53748;DHT22;39655;53.210;5.768;2022-10-31T02:18:51;11.80;95.70
53748;DHT22;39655;53.210;5.768;2022-10-31T02:21:27;11.80;95.80
53748;DHT22;39655;53.210;5.768;2022-10-31T02:30:00;11.70;95.70
53748;DHT22;39655;53.210;5.768;2022-10-31T02:32:49;11.70;95.70
53748;DHT22;39655;53.210;5.768;2022-10-31T02:40:44;11.60;95.60
53748;DHT22;39655;53.210;5.768;2022-10-31T02:43:21;11.60;95.60
53748;DHT22;39655;53.210;5.768;2022-10-31T02:45:57;11.60;95.60
53748;DHT22;39655;53.210;5.768;2022-10-31T02:48:28;11.50;95.60
53748;DHT22;39655;53.210;5.768;2022-10-31T02:50:59;11.50;95.60
53748;DHT22;39655;53.210;5.768;2022-10-31T02:53:26;11.50;95.60
53748;DHT22;39655;53.210;5.768;2022-10-31T02:56:02;11.50;95.60
53748;DHT22;39655;53.210;5.768;2022-10-31T02:58:33;11.40;95.60
53748;DHT22;39655;53.210;5.768;2022-10-31T03:01:20;11.40;95.60
53748;DHT22;39655;53.210;5.768;2022-10-31T03:11:58;11.40;95.70
53748;DHT22;39655;53.210;5.768;2022-10-31T03:14:41;11.40;95.70
53748;DHT22;39655;53.210;5.768;2022-10-31T03:17:13;11.40;95.80
53748;DHT22;39655;53.210;5.768;2022-10-31T03:19:42;11.40;95.80
53748;DHT22;39655;53.210;5.768;2022-10-31T03:22:19;11.40;95.80
53748;DHT22;39655;53.210;5.768;2022-10-31T03:24:47;11.30;95.90
53748;DHT22;39655;53.210;5.768;2022-10-31T03:27:18;11.30;95.90
53748;DHT22;39655;53.210;5.768;2022-10-31T03:29:47;11.30;95.90
53748;DHT22;39655;53.210;5.768;2022-10-31T03:32:21;11.30;95.90
53748;DHT22;39655;53.210;5.768;2022-10-31T03:34:49;11.30;95.90
53748;DHT22;39655;53.210;5.768;2022-10-31T03:37:18;11.20;95.90
53748;DHT22;39655;53.210;5.768;2022-10-31T03:39:47;11.20;96.00
53748;DHT22;39655;53.210;5.768;2022-10-31T03:42:18;11.20;95.90
53748;DHT22;39655;53.210;5.768;2022-10-31T03:44:55;11.20;95.90
53748;DHT22;39655;53.210;5.768;2022-10-31T03:47:21;11.20;95.90
53748;DHT22;39655;53.210;5.768;2022-10-31T03:49:47;11.10;95.90
53748;DHT22;39655;53.210;5.768;2022-10-31T03:54:59;11.10;96.00
53748;DHT22;39655;53.210;5.768;2022-10-31T03:57:34;11.10;96.00
53748;DHT22;39655;53.210;5.768;2022-10-31T04:00:09;11.10;95.90
53748;DHT22;39655;53.210;5.768;2022-10-31T04:02:40;11.10;95.90
53748;DHT22;39655;53.210;5.768;2022-10-31T04:05:07;11.10;95.90
53748;DHT22;39655;53.210;5.768;2022-10-31T04:07:37;11.00;95.90
53748;DHT22;39655;53.210;5.768;2022-10-31T04:10:06;11.00;95.80
53748;DHT22;39655;53.210;5.768;2022-10-31T04:12:34;10.90;95.80
53748;DHT22;39655;53.210;5.768;2022-10-31T04:15:03;10.90;95.80
53748;DHT22;39655;53.210;5.768;2022-10-31T04:17:33;10.90;95.90
53748;DHT22;39655;53.210;5.768;2022-10-31T04:20:00;10.90;95.90
53748;DHT22;39655;53.210;5.768;2022-10-31T04:22:26;10.90;95.90
53748;DHT22;39655;53.210;5.768;2022-10-31T04:24:52;10.90;95.90
53748;DHT22;39655;53.210;5.768;2022-10-31T04:27:18;10.90;96.00
53748;DHT22;39655;53.210;5.768;2022-10-31T04:29:43;10.80;95.90
53748;DHT22;39655;53.210;5.768;2022-10-31T04:32:09;10.80;95.90
53748;DHT22;39655;53.210;5.768;2022-10-31T04:34:34;10.80;95.90
53748;DHT22;39655;53.210;5.768;2022-10-31T04:37:00;10.80;95.90
53748;DHT22;39655;53.210;5.768;2022-10-31T04:39:25;10.70;95.90
53748;DHT22;39655;53.210;5.768;2022-10-31T04:41:51;10.70;95.90
53748;DHT22;39655;53.210;5.768;2022-10-31T04:44:17;10.70;95.90
53748;DHT22;39655;53.210;5.768;2022-10-31T04:46:43;10.70;95.90
53748;DHT22;39655;53.210;5.768;2022-10-31T04:49:09;10.70;95.90
53748;DHT22;39655;53.210;5.768;2022-10-31T04:51:34;10.70;95.90
53748;DHT22;39655;53.210;5.768;2022-10-31T04:54:00;10.70;96.00
53748;DHT22;39655;53.210;5.768;2022-10-31T04:56:26;10.70;96.00
53748;DHT22;39655;53.210;5.768;2022-10-31T04:58:52;10.60;96.00
53748;DHT22;39655;53.210;5.768;2022-10-31T05:01:17;10.60;96.00
53748;DHT22;39655;53.210;5.768;2022-10-31T05:03:43;10.60;96.00
53748;DHT22;39655;53.210;5.768;2022-10-31T05:06:09;10.60;96.10
53748;DHT22;39655;53.210;5.768;2022-10-31T05:08:34;10.60;96.10
53748;DHT22;39655;53.210;5.768;2022-10-31T05:11:03;10.60;96.10
53748;DHT22;39655;53.210;5.768;2022-10-31T05:13:29;10.60;96.10
53748;DHT22;39655;53.210;5.768;2022-10-31T05:15:55;10.60;96.20
53748;DHT22;39655;53.210;5.768;2022-10-31T05:18:21;10.60;96.30
53748;DHT22;39655;53.210;5.768;2022-10-31T05:20:50;10.60;96.30
53748;DHT22;39655;53.210;5.768;2022-10-31T05:23:16;10.60;96.30
53748;DHT22;39655;53.210;5.768;2022-10-31T05:25:42;10.60;96.30
53748;DHT22;39655;53.210;5.768;2022-10-31T05:28:08;10.60;96.30
53748;DHT22;39655;53.210;5.768;2022-10-31T05:30:34;10.60;96.30
53748;DHT22;39655;53.210;5.768;2022-10-31T05:33:00;10.50;96.30
53748;DHT22;39655;53.210;5.768;2022-10-31T05:35:31;10.50;96.30
53748;DHT22;39655;53.210;5.768;2022-10-31T05:37:58;10.40;96.20
53748;DHT22;39655;53.210;5.768;2022-10-31T05:40:25;10.40;96.30
53748;DHT22;39655;53.210;5.768;2022-10-31T05:42:52;10.40;96.30
53748;DHT22;39655;53.210;5.768;2022-10-31T05:45:19;10.40;96.30
53748;DHT22;39655;53.210;5.768;2022-10-31T05:50:17;10.40;96.30
53748;DHT22;39655;53.210;5.768;2022-10-31T05:52:43;10.40;96.40
53748;DHT22;39655;53.210;5.768;2022-10-31T05:55:09;10.40;96.30
53748;DHT22;39655;53.210;5.768;2022-10-31T05:57:35;10.40;96.40
53748;DHT22;39655;53.210;5.768;2022-10-31T06:00:01;10.40;96.30
53748;DHT22;39655;53.210;5.768;2022-10-31T06:02:27;10.30;96.30
53748;DHT22;39655;53.210;5.768;2022-10-31T06:04:52;10.30;96.30
53748;DHT22;39655;53.210;5.768;2022-10-31T06:07:18;10.30;96.30
53748;DHT22;39655;53.210;5.768;2022-10-31T06:09:44;10.30;96.30
53748;DHT22;39655;53.210;5.768;2022-10-31T06:12:10;10.30;96.40
53748;DHT22;39655;53.210;5.768;2022-10-31T06:14:38;10.30;96.50
53748;DHT22;39655;53.210;5.768;2022-10-31T06:17:03;10.30;96.40
53748;DHT22;39655;53.210;5.768;2022-10-31T06:19:29;10.40;96.50
53748;DHT22;39655;53.210;5.768;2022-10-31T06:21:55;10.30;96.50
53748;DHT22;39655;53.210;5.768;2022-10-31T06:24:21;10.30;96.50
53748;DHT22;39655;53.210;5.768;2022-10-31T06:26:50;10.30;96.60
53748;DHT22;39655;53.210;5.768;2022-10-31T06:29:16;10.30;96.50
53748;DHT22;39655;53.210;5.768;2022-10-31T06:31:42;10.30;96.50
53748;DHT22;39655;53.210;5.768;2022-10-31T06:34:07;10.30;96.50
53748;DHT22;39655;53.210;5.768;2022-10-31T06:36:33;10.30;96.60
53748;DHT22;39655;53.210;5.768;2022-10-31T06:39:00;10.30;96.60
53748;DHT22;39655;53.210;5.768;2022-10-31T06:41:26;10.40;96.80
53748;DHT22;39655;53.210;5.768;2022-10-31T06:43:52;10.40;96.80
53748;DHT22;39655;53.210;5.768;2022-10-31T06:46:17;10.40;96.70
53748;DHT22;39655;53.210;5.768;2022-10-31T06:48:43;10.40;96.70
53748;DHT22;39655;53.210;5.768;2022-10-31T06:51:09;10.50;96.70
53748;DHT22;39655;53.210;5.768;2022-10-31T06:53:35;10.40;96.70
53748;DHT22;39655;53.210;5.768;2022-10-31T06:56:01;10.40;96.60
53748;DHT22;39655;53.210;5.768;2022-10-31T06:58:26;10.40;96.60
53748;DHT22;39655;53.210;5.768;2022-10-31T07:00:52;10.40;96.70
53748;DHT22;39655;53.210;5.768;2022-10-31T07:03:18;10.40;96.60
53748;DHT22;39655;53.210;5.768;2022-10-31T07:05:45;10.40;96.60
53748;DHT22;39655;53.210;5.768;2022-10-31T07:08:16;10.40;96.60
53748;DHT22;39655;53.210;5.768;2022-10-31T07:10:43;10.30;96.60
53748;DHT22;39655;53.210;5.768;2022-10-31T07:13:21;10.40;96.60
53748;DHT22;39655;53.210;5.768;2022-10-31T07:15:53;10.40;96.60
53748;DHT22;39655;53.210;5.768;2022-10-31T07:18:25;10.40;96.60
53748;DHT22;39655;53.210;5.768;2022-10-31T07:20:53;10.40;96.60
53748;DHT22;39655;53.210;5.768;2022-10-31T07:23:30;10.40;96.60
53748;DHT22;39655;53.210;5.768;2022-10-31T07:26:33;10.40;96.60
53748;DHT22;39655;53.210;5.768;2022-10-31T07:29:04;10.40;96.60
53748;DHT22;39655;53.210;5.768;2022-10-31T07:31:32;10.40;96.60
53748;DHT22;39655;53.210;5.768;2022-10-31T07:34:10;10.50;96.60
53748;DHT22;39655;53.210;5.768;2022-10-31T07:36:39;10.50;96.60
53748;DHT22;39655;53.210;5.768;2022-10-31T07:39:08;10.50;96.60
53748;DHT22;39655;53.210;5.768;2022-10-31T07:41:35;10.50;96.60
53748;DHT22;39655;53.210;5.768;2022-10-31T07:44:04;10.50;96.50
53748;DHT22;39655;53.210;5.768;2022-10-31T07:46:30;10.50;96.60
53748;DHT22;39655;53.210;5.768;2022-10-31T07:48:55;10.50;96.50
53748;DHT22;39655;53.210;5.768;2022-10-31T07:51:24;10.50;96.50
53748;DHT22;39655;53.210;5.768;2022-10-31T07:53:53;10.60;96.60
53748;DHT22;39655;53.210;5.768;2022-10-31T07:56:24;10.60;96.50
53748;DHT22;39655;53.210;5.768;2022-10-31T07:58:59;10.60;96.60
53748;DHT22;39655;53.210;5.768;2022-10-31T08:01:28;10.60;96.60
53748;DHT22;39655;53.210;5.768;2022-10-31T08:03:54;10.70;96.60
53748;DHT22;39655;53.210;5.768;2022-10-31T08:06:23;10.70;96.60
53748;DHT22;39655;53.210;5.768;2022-10-31T08:08:48;10.80;96.60
53748;DHT22;39655;53.210;5.768;2022-10-31T08:11:17;10.90;96.70
53748;DHT22;39655;53.210;5.768;2022-10-31T08:13:46;10.90;96.70
53748;DHT22;39655;53.210;5.768;2022-10-31T08:16:14;11.00;96.70
53748;DHT22;39655;53.210;5.768;2022-10-31T08:18:42;11.10;96.70
53748;DHT22;39655;53.210;5.768;2022-10-31T08:21:10;11.10;96.70
53748;DHT22;39655;53.210;5.768;2022-10-31T08:23:36;11.20;96.70
53748;DHT22;39655;53.210;5.768;2022-10-31T08:26:02;11.20;96.70
53748;DHT22;39655;53.210;5.768;2022-10-31T08:28:27;11.30;96.70
53748;DHT22;39655;53.210;5.768;2022-10-31T08:30:53;11.40;96.70
53748;DHT22;39655;53.210;5.768;2022-10-31T08:33:19;11.50;96.80
53748;DHT22;39655;53.210;5.768;2022-10-31T08:35:44;11.60;96.80
53748;DHT22;39655;53.210;5.768;2022-10-31T08:38:12;11.70;96.70
53748;DHT22;39655;53.210;5.768;2022-10-31T08:40:38;11.70;96.70
53748;DHT22;39655;53.210;5.768;2022-10-31T08:43:16;11.80;96.70
53748;DHT22;39655;53.210;5.768;2022-10-31T08:45:43;11.90;96.70
53748;DHT22;39655;53.210;5.768;2022-10-31T08:48:13;12.00;96.60
53748;DHT22;39655;53.210;5.768;2022-10-31T08:50:40;12.10;96.50
53748;DHT22;39655;53.210;5.768;2022-10-31T08:53:11;12.10;96.50
53748;DHT22;39655;53.210;5.768;2022-10-31T08:55:38;12.20;96.30
53748;DHT22;39655;53.210;5.768;2022-10-31T08:58:15;12.30;96.20
53748;DHT22;39655;53.210;5.768;2022-10-31T09:00:45;12.40;96.10
53748;DHT22;39655;53.210;5.768;2022-10-31T09:03:22;12.40;96.00
53748;DHT22;39655;53.210;5.768;2022-10-31T09:05:49;12.40;95.90
53748;DHT22;39655;53.210;5.768;2022-10-31T09:08:18;12.50;95.80
53748;DHT22;39655;53.210;5.768;2022-10-31T09:10:43;12.60;95.70
53748;DHT22;39655;53.210;5.768;2022-10-31T09:13:16;12.60;95.70
53748;DHT22;39655;53.210;5.768;2022-10-31T09:15:43;12.70;95.60
53748;DHT22;39655;53.210;5.768;2022-10-31T09:18:10;12.70;95.50
53748;DHT22;39655;53.210;5.768;2022-10-31T09:20:37;12.80;95.40
53748;DHT22;39655;53.210;5.768;2022-10-31T09:23:11;12.80;95.30
53748;DHT22;39655;53.210;5.768;2022-10-31T09:25:38;12.90;95.10
53748;DHT22;39655;53.210;5.768;2022-10-31T09:28:08;13.00;95.10
53748;DHT22;39655;53.210;5.768;2022-10-31T09:30:45;13.10;94.90
53748;DHT22;39655;53.210;5.768;2022-10-31T09:33:14;13.10;94.70
53748;DHT22;39655;53.210;5.768;2022-10-31T09:35:40;13.20;94.60
53748;DHT22;39655;53.210;5.768;2022-10-31T09:38:10;13.20;94.50
53748;DHT22;39655;53.210;5.768;2022-10-31T09:40:44;13.30;94.30
53748;DHT22;39655;53.210;5.768;2022-10-31T09:46:30;13.50;94.00
53748;DHT22;39655;53.210;5.768;2022-10-31T09:51:25;13.70;93.60
53748;DHT22;39655;53.210;5.768;2022-10-31T09:55:03;13.70;93.50
53748;DHT22;39655;53.210;5.768;2022-10-31T09:56:58;13.80;93.40
53748;DHT22;39655;53.210;5.768;2022-10-31T09:59:35;13.90;93.50
53748;DHT22;39655;53.210;5.768;2022-10-31T10:02:19;14.00;93.30
53748;DHT22;39655;53.210;5.768;2022-10-31T10:05:09;14.10;93.00
53748;DHT22;39655;53.210;5.768;2022-10-31T10:10:19;14.10;92.70
53748;DHT22;39655;53.210;5.768;2022-10-31T10:15:26;13.90;92.50
53748;DHT22;39655;53.210;5.768;2022-10-31T10:18:04;13.90;92.70
53748;DHT22;39655;53.210;5.768;2022-10-31T10:20:42;13.90;92.90
53748;DHT22;39655;53.210;5.768;2022-10-31T10:23:24;14.00;93.00
53748;DHT22;39655;53.210;5.768;2022-10-31T10:26:20;14.10;93.10
53748;DHT22;39655;53.210;5.768;2022-10-31T10:28:57;14.10;92.70
53748;DHT22;39655;53.210;5.768;2022-10-31T10:31:27;14.20;92.50
53748;DHT22;39655;53.210;5.768;2022-10-31T10:34:12;14.30;91.90
53748;DHT22;39655;53.210;5.768;2022-10-31T10:36:51;14.50;91.90
53748;DHT22;39655;53.210;5.768;2022-10-31T10:39:24;14.60;90.80
53748;DHT22;39655;53.210;5.768;2022-10-31T10:41:51;14.70;91.10
53748;DHT22;39655;53.210;5.768;2022-10-31T10:44:40;14.70;89.80
53748;DHT22;39655;53.210;5.768;2022-10-31T10:47:34;14.70;90.10
53748;DHT22;39655;53.210;5.768;2022-10-31T10:50:25;14.80;89.50
53748;DHT22;39655;53.210;5.768;2022-10-31T10:56:15;14.80;90.00
53748;DHT22;39655;53.210;5.768;2022-10-31T10:58:44;14.90;90.50
53748;DHT22;39655;53.210;5.768;2022-10-31T11:01:14;15.00;90.40
53748;DHT22;39655;53.210;5.768;2022-10-31T11:03:42;15.10;90.30
53748;DHT22;39655;53.210;5.768;2022-10-31T11:06:26;15.10;90.00
53748;DHT22;39655;53.210;5.768;2022-10-31T11:08:52;15.20;90.10
53748;DHT22;39655;53.210;5.768;2022-10-31T11:11:26;15.30;89.80
53748;DHT22;39655;53.210;5.768;2022-10-31T11:14:16;15.40;89.50
53748;DHT22;39655;53.210;5.768;2022-10-31T11:16:45;15.40;89.50
53748;DHT22;39655;53.210;5.768;2022-10-31T11:19:19;15.50;89.10
53748;DHT22;39655;53.210;5.768;2022-10-31T11:21:48;15.60;88.80
53748;DHT22;39655;53.210;5.768;2022-10-31T11:24:16;15.60;88.40
53748;DHT22;39655;53.210;5.768;2022-10-31T11:26:44;15.70;88.70
53748;DHT22;39655;53.210;5.768;2022-10-31T11:29:20;15.60;88.70
53748;DHT22;39655;53.210;5.768;2022-10-31T11:31:46;15.60;88.20
53748;DHT22;39655;53.210;5.768;2022-10-31T11:36:52;15.70;88.80
53748;DHT22;39655;53.210;5.768;2022-10-31T11:39:23;15.80;88.30
53748;DHT22;39655;53.210;5.768;2022-10-31T11:41:54;16.00;88.40
53748;DHT22;39655;53.210;5.768;2022-10-31T11:44:43;16.10;88.00
53748;DHT22;39655;53.210;5.768;2022-10-31T11:47:14;16.30;87.40
53748;DHT22;39655;53.210;5.768;2022-10-31T11:49:45;16.40;87.70
53748;DHT22;39655;53.210;5.768;2022-10-31T11:52:27;16.50;86.30
53748;DHT22;39655;53.210;5.768;2022-10-31T11:57:29;16.60;85.60
53748;DHT22;39655;53.210;5.768;2022-10-31T12:00:17;16.60;85.10
53748;DHT22;39655;53.210;5.768;2022-10-31T12:02:47;16.60;85.70
53748;DHT22;39655;53.210;5.768;2022-10-31T12:05:23;16.60;85.40
53748;DHT22;39655;53.210;5.768;2022-10-31T12:07:53;16.70;85.10
53748;DHT22;39655;53.210;5.768;2022-10-31T12:10:38;16.70;84.80
53748;DHT22;39655;53.210;5.768;2022-10-31T12:15:45;16.70;84.20
53748;DHT22;39655;53.210;5.768;2022-10-31T12:26:34;16.40;84.00
53748;DHT22;39655;53.210;5.768;2022-10-31T12:29:21;16.50;84.00
53748;DHT22;39655;53.210;5.768;2022-10-31T12:46:03;16.10;84.20
53748;DHT22;39655;53.210;5.768;2022-10-31T12:49:01;16.10;84.50
53748;DHT22;39655;53.210;5.768;2022-10-31T12:51:57;16.10;84.20
53748;DHT22;39655;53.210;5.768;2022-10-31T13:00:04;16.40;84.60
53748;DHT22;39655;53.210;5.768;2022-10-31T13:05:05;16.80;83.80
53748;DHT22;39655;53.210;5.768;2022-10-31T13:07:52;16.80;82.30
53748;DHT22;39655;53.210;5.768;2022-10-31T13:10:27;17.00;82.90
53748;DHT22;39655;53.210;5.768;2022-10-31T13:13:02;17.10;82.30
53748;DHT22;39655;53.210;5.768;2022-10-31T13:15:34;17.10;82.50
53748;DHT22;39655;53.210;5.768;2022-10-31T13:18:21;17.20;82.60
53748;DHT22;39655;53.210;5.768;2022-10-31T13:20:49;17.40;80.60
53748;DHT22;39655;53.210;5.768;2022-10-31T13:23:32;17.50;81.60
53748;DHT22;39655;53.210;5.768;2022-10-31T13:26:01;17.60;79.00
53748;DHT22;39655;53.210;5.768;2022-10-31T13:28:40;17.80;79.60
53748;DHT22;39655;53.210;5.768;2022-10-31T13:31:09;17.90;78.90
53748;DHT22;39655;53.210;5.768;2022-10-31T13:33:49;18.00;77.30
53748;DHT22;39655;53.210;5.768;2022-10-31T13:42:04;18.30;77.00
53748;DHT22;39655;53.210;5.768;2022-10-31T13:44:38;18.30;76.50
53748;DHT22;39655;53.210;5.768;2022-10-31T13:47:25;18.30;75.60
53748;DHT22;39655;53.210;5.768;2022-10-31T13:49:51;18.30;75.50
53748;DHT22;39655;53.210;5.768;2022-10-31T13:52:24;18.30;76.10
53748;DHT22;39655;53.210;5.768;2022-10-31T13:54:51;18.30;76.20
53748;DHT22;39655;53.210;5.768;2022-10-31T13:57:31;18.30;75.50
53748;DHT22;39655;53.210;5.768;2022-10-31T14:02:47;18.00;75.50
53748;DHT22;39655;53.210;5.768;2022-10-31T14:05:34;17.80;75.60
53748;DHT22;39655;53.210;5.768;2022-10-31T14:08:40;17.90;76.30
53748;DHT22;39655;53.210;5.768;2022-10-31T14:11:07;18.00;76.10
53748;DHT22;39655;53.210;5.768;2022-10-31T14:13:46;18.00;76.60
53748;DHT22;39655;53.210;5.768;2022-10-31T14:16:22;18.00;76.00
53748;DHT22;39655;53.210;5.768;2022-10-31T14:18:57;18.00;76.20
53748;DHT22;39655;53.210;5.768;2022-10-31T14:23:52;18.10;76.60
53748;DHT22;39655;53.210;5.768;2022-10-31T14:31:39;18.00;75.80
53748;DHT22;39655;53.210;5.768;2022-10-31T14:37:08;17.70;76.60
53748;DHT22;39655;53.210;5.768;2022-10-31T14:40:06;17.60;77.20
53748;DHT22;39655;53.210;5.768;2022-10-31T14:48:57;17.40;78.50
53748;DHT22;39655;53.210;5.768;2022-10-31T14:51:54;17.40;78.20
53748;DHT22;39655;53.210;5.768;2022-10-31T14:54:29;17.30;78.50
53748;DHT22;39655;53.210;5.768;2022-10-31T14:57:06;17.20;78.80
53748;DHT22;39655;53.210;5.768;2022-10-31T14:59:37;17.10;78.90
53748;DHT22;39655;53.210;5.768;2022-10-31T15:02:43;17.10;79.20
53748;DHT22;39655;53.210;5.768;2022-10-31T15:05:40;17.10;79.30
53748;DHT22;39655;53.210;5.768;2022-10-31T15:08:14;17.00;79.40
53748;DHT22;39655;53.210;5.768;2022-10-31T15:10:51;16.90;79.40
53748;DHT22;39655;53.210;5.768;2022-10-31T15:13:26;16.90;79.50
53748;DHT22;39655;53.210;5.768;2022-10-31T15:15:54;16.80;79.20
53748;DHT22;39655;53.210;5.768;2022-10-31T15:18:24;16.80;79.40
53748;DHT22;39655;53.210;5.768;2022-10-31T15:20:53;16.80;78.90
53748;DHT22;39655;53.210;5.768;2022-10-31T15:23:29;16.70;79.30
53748;DHT22;39655;53.210;5.768;2022-10-31T15:26:04;16.60;79.80
53748;DHT22;39655;53.210;5.768;2022-10-31T15:28:31;16.60;80.60
53748;DHT22;39655;53.210;5.768;2022-10-31T15:30:59;16.60;81.10
53748;DHT22;39655;53.210;5.768;2022-10-31T15:33:27;16.60;81.50
53748;DHT22;39655;53.210;5.768;2022-10-31T15:35:58;16.50;81.30
53748;DHT22;39655;53.210;5.768;2022-10-31T15:38:28;16.50;81.40
53748;DHT22;39655;53.210;5.768;2022-10-31T15:41:00;16.40;81.40
53748;DHT22;39655;53.210;5.768;2022-10-31T15:43:32;16.40;81.80
53748;DHT22;39655;53.210;5.768;2022-10-31T15:46:00;16.40;81.80
53748;DHT22;39655;53.210;5.768;2022-10-31T15:48:33;16.30;82.00
53748;DHT22;39655;53.210;5.768;2022-10-31T15:51:01;16.30;81.90
53748;DHT22;39655;53.210;5.768;2022-10-31T15:53:54;16.20;82.00
53748;DHT22;39655;53.210;5.768;2022-10-31T15:56:23;16.20;81.80
53748;DHT22;39655;53.210;5.768;2022-10-31T15:58:53;16.10;82.00
53748;DHT22;39655;53.210;5.768;2022-10-31T16:01:33;16.10;82.20
53748;DHT22;39655;53.210;5.768;2022-10-31T16:06:39;16.10;82.40
53748;DHT22;39655;53.210;5.768;2022-10-31T16:09:26;16.00;81.90
53748;DHT22;39655;53.210;5.768;2022-10-31T16:11:56;15.90;82.40
53748;DHT22;39655;53.210;5.768;2022-10-31T16:14:27;15.80;82.50
53748;DHT22;39655;53.210;5.768;2022-10-31T16:16:55;15.80;82.60
53748;DHT22;39655;53.210;5.768;2022-10-31T16:19:27;15.80;82.80
53748;DHT22;39655;53.210;5.768;2022-10-31T16:22:01;15.80;82.70
53748;DHT22;39655;53.210;5.768;2022-10-31T16:24:33;15.80;82.80
53748;DHT22;39655;53.210;5.768;2022-10-31T16:27:17;15.70;82.70
53748;DHT22;39655;53.210;5.768;2022-10-31T16:29:46;15.80;83.20
53748;DHT22;39655;53.210;5.768;2022-10-31T16:32:34;15.70;83.30
53748;DHT22;39655;53.210;5.768;2022-10-31T16:37:37;15.70;83.20
53748;DHT22;39655;53.210;5.768;2022-10-31T16:40:03;15.70;83.40
53748;DHT22;39655;53.210;5.768;2022-10-31T16:42:29;15.70;83.60
53748;DHT22;39655;53.210;5.768;2022-10-31T16:44:54;15.70;83.70
53748;DHT22;39655;53.210;5.768;2022-10-31T16:47:20;15.60;83.90
53748;DHT22;39655;53.210;5.768;2022-10-31T16:49:49;15.60;83.90
53748;DHT22;39655;53.210;5.768;2022-10-31T16:52:16;15.60;84.00
53748;DHT22;39655;53.210;5.768;2022-10-31T16:54:42;15.70;84.20
53748;DHT22;39655;53.210;5.768;2022-10-31T16:57:13;15.60;84.30
53748;DHT22;39655;53.210;5.768;2022-10-31T16:59:40;15.60;84.40
53748;DHT22;39655;53.210;5.768;2022-10-31T17:02:12;15.60;84.20
53748;DHT22;39655;53.210;5.768;2022-10-31T17:04:39;15.60;84.30
53748;DHT22;39655;53.210;5.768;2022-10-31T17:07:04;15.60;84.70
53748;DHT22;39655;53.210;5.768;2022-10-31T17:09:30;15.60;84.70
53748;DHT22;39655;53.210;5.768;2022-10-31T17:11:56;15.60;84.60
53748;DHT22;39655;53.210;5.768;2022-10-31T17:14:21;15.50;84.70
53748;DHT22;39655;53.210;5.768;2022-10-31T17:16:48;15.50;84.70
53748;DHT22;39655;53.210;5.768;2022-10-31T17:19:14;15.50;84.50
53748;DHT22;39655;53.210;5.768;2022-10-31T17:21:40;15.40;84.40
53748;DHT22;39655;53.210;5.768;2022-10-31T17:24:08;15.40;84.70
53748;DHT22;39655;53.210;5.768;2022-10-31T17:26:34;15.40;84.60
53748;DHT22;39655;53.210;5.768;2022-10-31T17:29:00;15.40;84.70
53748;DHT22;39655;53.210;5.768;2022-10-31T17:31:30;15.30;84.60
53748;DHT22;39655;53.210;5.768;2022-10-31T17:33:57;15.30;84.80
53748;DHT22;39655;53.210;5.768;2022-10-31T17:36:23;15.30;84.90
53748;DHT22;39655;53.210;5.768;2022-10-31T17:38:49;15.30;85.10
53748;DHT22;39655;53.210;5.768;2022-10-31T17:41:14;15.30;85.20